sensor_id;sensor_type;location;lat;lon;timestamp;temperature;humidity
827;DHT22;395;48.132;11.608;2024-03-23T07:53:26;13.80;1.00
827;DHT22;395;48.132;11.608;2024-03-23T07:55:55;13.70;1.00
827;DHT22;395;48.132;11.608;2024-03-23T07:58:21;13.40;1.00
827;DHT22;395;48.132;11.608;2024-03-23T08:00:47;12.90;1.00
827;DHT22;395;48.132;11.608;2024-03-23T08:03:13;12.60;1.00
827;DHT22;395;48.132;11.608;2024-03-23T08:05:39;12.40;1.00
827;DHT22;395;48.132;11.608;2024-03-23T08:08:05;12.30;1.00
827;DHT22;395;48.132;11.608;2024-03-23T08:10:31;12.10;1.00
827;DHT22;395;48.132;11.608;2024-03-23T08:12:57;12.00;1.00
827;DHT22;395;48.132;11.608;2024-03-23T08:15:22;11.80;1.00
827;DHT22;395;48.132;11.608;2024-03-23T08:17:49;11.80;1.00
827;DHT22;395;48.132;11.608;2024-03-23T08:20:15;11.70;1.00
827;DHT22;395;48.132;11.608;2024-03-23T08:22:41;11.70;1.00
827;DHT22;395;48.132;11.608;2024-03-23T08:25:07;11.60;1.00
827;DHT22;395;48.132;11.608;2024-03-23T08:27:33;11.50;1.00
827;DHT22;395;48.132;11.608;2024-03-23T08:29:58;11.40;1.00
827;DHT22;395;48.132;11.608;2024-03-23T08:32:24;11.40;1.00
827;DHT22;395;48.132;11.608;2024-03-23T08:34:50;11.30;1.00
827;DHT22;395;48.132;11.608;2024-03-23T08:37:16;11.20;3.80
827;DHT22;395;48.132;11.608;2024-03-23T08:39:45;11.20;4.30
827;DHT22;395;48.132;11.608;2024-03-23T08:42:10;11.10;3.40
827;DHT22;395;48.132;11.608;2024-03-23T08:44:36;11.00;8.80
827;DHT22;395;48.132;11.608;2024-03-23T08:47:02;10.80;6.80
827;DHT22;395;48.132;11.608;2024-03-23T08:49:28;10.30;6.90
827;DHT22;395;48.132;11.608;2024-03-23T08:51:53;10.30;8.70
827;DHT22;395;48.132;11.608;2024-03-23T08:54:20;10.10;11.80
827;DHT22;395;48.132;11.608;2024-03-23T08:56:47;10.10;14.90
827;DHT22;395;48.132;11.608;2024-03-23T08:59:13;10.00;16.80
827;DHT22;395;48.132;11.608;2024-03-23T09:01:39;9.90;16.00
827;DHT22;395;48.132;11.608;2024-03-23T09:04:05;9.90;13.30
827;DHT22;395;48.132;11.608;2024-03-23T09:06:31;9.80;13.80
827;DHT22;395;48.132;11.608;2024-03-23T09:08:56;9.90;16.50
827;DHT22;395;48.132;11.608;2024-03-23T09:11:22;9.90;12.70
827;DHT22;395;48.132;11.608;2024-03-23T09:13:48;9.90;12.00
827;DHT22;395;48.132;11.608;2024-03-23T09:16:15;9.90;14.30
827;DHT22;395;48.132;11.608;2024-03-23T09:18:40;10.00;13.60
827;DHT22;395;48.132;11.608;2024-03-23T09:21:15;10.00;14.30
827;DHT22;395;48.132;11.608;2024-03-23T09:23:45;10.10;16.30
827;DHT22;395;48.132;11.608;2024-03-23T09:26:10;10.10;13.30
827;DHT22;395;48.132;11.608;2024-03-23T09:28:36;10.10;12.10
827;DHT22;395;48.132;11.608;2024-03-23T09:31:06;10.20;13.20
827;DHT22;395;48.132;11.608;2024-03-23T09:33:39;10.20;8.30
827;DHT22;395;48.132;11.608;2024-03-23T09:36:06;10.30;11.20
827;DHT22;395;48.132;11.608;2024-03-23T09:38:32;10.20;3.60
827;DHT22;395;48.132;11.608;2024-03-23T09:40:58;10.20;3.20
827;DHT22;395;48.132;11.608;2024-03-23T09:43:25;10.20;3.60
827;DHT22;395;48.132;11.608;2024-03-23T09:45:51;10.20;3.70
827;DHT22;395;48.132;11.608;2024-03-23T09:48:17;10.20;1.00
827;DHT22;395;48.132;11.608;2024-03-23T09:50:44;10.00;1.00
827;DHT22;395;48.132;11.608;2024-03-23T09:53:12;10.00;1.00
827;DHT22;395;48.132;11.608;2024-03-23T09:55:42;10.00;1.00
827;DHT22;395;48.132;11.608;2024-03-23T09:58:12;9.90;1.00
827;DHT22;395;48.132;11.608;2024-03-23T10:00:38;9.80;1.00
827;DHT22;395;48.132;11.608;2024-03-23T10:03:05;9.80;1.00
827;DHT22;395;48.132;11.608;2024-03-23T10:05:32;9.70;1.00
827;DHT22;395;48.132;11.608;2024-03-23T10:08:17;9.70;1.00
827;DHT22;395;48.132;11.608;2024-03-23T10:10:45;9.60;1.00
827;DHT22;395;48.132;11.608;2024-03-23T10:13:14;9.50;3.90
827;DHT22;395;48.132;11.608;2024-03-23T10:15:58;9.10;6.80
827;DHT22;395;48.132;11.608;2024-03-23T10:18:25;8.80;9.70
827;DHT22;395;48.132;11.608;2024-03-23T10:23:36;8.50;14.80
827;DHT22;395;48.132;11.608;2024-03-23T10:26:24;8.50;14.40
827;DHT22;395;48.132;11.608;2024-03-23T10:29:00;8.60;18.90
827;DHT22;395;48.132;11.608;2024-03-23T10:31:30;8.60;19.00
827;DHT22;395;48.132;11.608;2024-03-23T10:33:56;8.60;12.60
827;DHT22;395;48.132;11.608;2024-03-23T10:36:23;8.60;17.70
827;DHT22;395;48.132;11.608;2024-03-23T10:38:50;8.70;17.10
827;DHT22;395;48.132;11.608;2024-03-23T10:41:18;8.80;12.80
827;DHT22;395;48.132;11.608;2024-03-23T10:43:49;8.90;12.90
827;DHT22;395;48.132;11.608;2024-03-23T10:46:15;9.00;14.70
827;DHT22;395;48.132;11.608;2024-03-23T10:48:41;8.90;6.00
827;DHT22;395;48.132;11.608;2024-03-23T10:51:10;8.90;5.60
827;DHT22;395;48.132;11.608;2024-03-23T10:53:36;9.00;3.60
827;DHT22;395;48.132;11.608;2024-03-23T10:56:05;9.00;1.00
827;DHT22;395;48.132;11.608;2024-03-23T10:58:40;8.70;1.00
827;DHT22;395;48.132;11.608;2024-03-23T11:01:06;8.60;1.00
827;DHT22;395;48.132;11.608;2024-03-23T11:03:37;8.60;1.00
827;DHT22;395;48.132;11.608;2024-03-23T11:06:05;8.60;1.00
827;DHT22;395;48.132;11.608;2024-03-23T11:08:38;8.70;1.00
827;DHT22;395;48.132;11.608;2024-03-23T11:11:14;8.80;1.00
827;DHT22;395;48.132;11.608;2024-03-23T11:13:40;8.80;1.00
827;DHT22;395;48.132;11.608;2024-03-23T11:16:16;8.90;1.00
827;DHT22;395;48.132;11.608;2024-03-23T11:18:43;8.90;1.00
827;DHT22;395;48.132;11.608;2024-03-23T11:21:10;8.90;1.00
827;DHT22;395;48.132;11.608;2024-03-23T11:23:36;9.00;1.00
827;DHT22;395;48.132;11.608;2024-03-23T11:26:02;9.00;1.00
827;DHT22;395;48.132;11.608;2024-03-23T11:28:28;9.10;1.00
827;DHT22;395;48.132;11.608;2024-03-23T11:30:53;9.10;1.00
827;DHT22;395;48.132;11.608;2024-03-23T11:33:19;9.10;1.00
827;DHT22;395;48.132;11.608;2024-03-23T11:35:45;9.20;1.00
827;DHT22;395;48.132;11.608;2024-03-23T11:38:12;9.30;1.00
827;DHT22;395;48.132;11.608;2024-03-23T11:40:42;9.50;1.00
827;DHT22;395;48.132;11.608;2024-03-23T11:43:10;9.50;1.00
827;DHT22;395;48.132;11.608;2024-03-23T11:45:43;9.50;1.00
827;DHT22;395;48.132;11.608;2024-03-23T11:48:11;9.50;1.00
827;DHT22;395;48.132;11.608;2024-03-23T11:50:42;9.50;1.00
827;DHT22;395;48.132;11.608;2024-03-23T11:58:21;9.50;1.00
827;DHT22;395;48.132;11.608;2024-03-23T12:03:17;9.80;1.00
827;DHT22;395;48.132;11.608;2024-03-23T12:05:51;9.80;1.00
827;DHT22;395;48.132;11.608;2024-03-23T12:08:23;9.90;1.00
827;DHT22;395;48.132;11.608;2024-03-23T12:10:53;9.80;1.00
827;DHT22;395;48.132;11.608;2024-03-23T12:13:30;9.80;1.00
827;DHT22;395;48.132;11.608;2024-03-23T12:16:09;9.60;1.00
827;DHT22;395;48.132;11.608;2024-03-23T12:18:36;9.60;1.00
827;DHT22;395;48.132;11.608;2024-03-23T12:21:02;9.50;1.00
827;DHT22;395;48.132;11.608;2024-03-23T12:23:27;9.40;1.00
827;DHT22;395;48.132;11.608;2024-03-23T12:25:53;9.30;1.00
827;DHT22;395;48.132;11.608;2024-03-23T12:28:19;9.30;1.00
827;DHT22;395;48.132;11.608;2024-03-23T12:30:47;9.30;1.00
827;DHT22;395;48.132;11.608;2024-03-23T12:33:13;9.40;1.00
827;DHT22;395;48.132;11.608;2024-03-23T12:35:39;9.50;1.00
827;DHT22;395;48.132;11.608;2024-03-23T12:38:04;9.50;1.00
827;DHT22;395;48.132;11.608;2024-03-23T12:40:30;9.60;1.00
827;DHT22;395;48.132;11.608;2024-03-23T12:42:56;9.70;1.00
827;DHT22;395;48.132;11.608;2024-03-23T12:45:22;9.80;1.00
827;DHT22;395;48.132;11.608;2024-03-23T12:47:48;9.90;1.00
827;DHT22;395;48.132;11.608;2024-03-23T12:50:14;9.90;1.00
827;DHT22;395;48.132;11.608;2024-03-23T12:52:40;9.80;1.00
827;DHT22;395;48.132;11.608;2024-03-23T12:55:06;9.80;1.00
827;DHT22;395;48.132;11.608;2024-03-23T12:57:32;9.90;1.00
827;DHT22;395;48.132;11.608;2024-03-23T12:59:59;9.90;1.00
827;DHT22;395;48.132;11.608;2024-03-23T13:02:25;9.90;1.00
827;DHT22;395;48.132;11.608;2024-03-23T13:04:55;10.00;1.00
827;DHT22;395;48.132;11.608;2024-03-23T13:07:21;10.00;1.00
827;DHT22;395;48.132;11.608;2024-03-23T13:09:50;10.10;1.00
827;DHT22;395;48.132;11.608;2024-03-23T13:12:16;10.20;1.00
827;DHT22;395;48.132;11.608;2024-03-23T13:14:45;10.30;1.00
827;DHT22;395;48.132;11.608;2024-03-23T13:17:10;10.40;1.00
827;DHT22;395;48.132;11.608;2024-03-23T13:19:36;10.40;1.00
827;DHT22;395;48.132;11.608;2024-03-23T13:22:03;10.40;1.00
827;DHT22;395;48.132;11.608;2024-03-23T13:24:29;10.40;1.00
827;DHT22;395;48.132;11.608;2024-03-23T13:26:56;10.50;1.00
827;DHT22;395;48.132;11.608;2024-03-23T13:29:22;10.40;1.00
827;DHT22;395;48.132;11.608;2024-03-23T13:31:49;10.30;1.00
827;DHT22;395;48.132;11.608;2024-03-23T13:34:16;10.20;1.00
827;DHT22;395;48.132;11.608;2024-03-23T13:36:42;10.10;1.00
827;DHT22;395;48.132;11.608;2024-03-23T13:39:09;10.00;1.00
827;DHT22;395;48.132;11.608;2024-03-23T13:41:39;10.00;1.00
827;DHT22;395;48.132;11.608;2024-03-23T13:44:06;10.00;1.00
827;DHT22;395;48.132;11.608;2024-03-23T13:46:32;10.00;1.00
827;DHT22;395;48.132;11.608;2024-03-23T13:48:59;10.00;1.00
827;DHT22;395;48.132;11.608;2024-03-23T13:51:25;10.10;1.00
827;DHT22;395;48.132;11.608;2024-03-23T13:53:54;10.10;1.00
827;DHT22;395;48.132;11.608;2024-03-23T13:56:22;10.10;1.00
827;DHT22;395;48.132;11.608;2024-03-23T13:58:48;10.00;1.00
827;DHT22;395;48.132;11.608;2024-03-23T14:01:15;9.90;1.00
827;DHT22;395;48.132;11.608;2024-03-23T14:03:42;9.70;1.00
827;DHT22;395;48.132;11.608;2024-03-23T14:06:08;9.50;1.00
827;DHT22;395;48.132;11.608;2024-03-23T14:08:35;9.00;1.00
827;DHT22;395;48.132;11.608;2024-03-23T14:11:08;8.40;1.00
827;DHT22;395;48.132;11.608;2024-03-23T14:13:37;8.00;1.00
827;DHT22;395;48.132;11.608;2024-03-23T14:16:03;7.70;1.00
827;DHT22;395;48.132;11.608;2024-03-23T14:18:30;7.60;6.00
827;DHT22;395;48.132;11.608;2024-03-23T14:21:00;7.60;7.30
827;DHT22;395;48.132;11.608;2024-03-23T14:23:31;7.60;7.70
827;DHT22;395;48.132;11.608;2024-03-23T14:26:00;7.60;8.70
827;DHT22;395;48.132;11.608;2024-03-23T14:28:26;7.70;3.70
827;DHT22;395;48.132;11.608;2024-03-23T14:30:54;7.80;6.40
827;DHT22;395;48.132;11.608;2024-03-23T14:33:21;7.90;5.30
827;DHT22;395;48.132;11.608;2024-03-23T14:35:52;8.00;1.70
827;DHT22;395;48.132;11.608;2024-03-23T14:38:19;8.00;1.00
827;DHT22;395;48.132;11.608;2024-03-23T14:40:46;8.00;1.00
827;DHT22;395;48.132;11.608;2024-03-23T14:43:12;8.00;1.00
827;DHT22;395;48.132;11.608;2024-03-23T14:46:18;8.00;1.00
827;DHT22;395;48.132;11.608;2024-03-23T14:48:45;8.00;1.00
827;DHT22;395;48.132;11.608;2024-03-23T14:51:11;7.90;1.00
827;DHT22;395;48.132;11.608;2024-03-23T14:53:44;7.80;1.00
827;DHT22;395;48.132;11.608;2024-03-23T14:56:10;7.80;1.00
827;DHT22;395;48.132;11.608;2024-03-23T14:58:40;7.80;1.00
827;DHT22;395;48.132;11.608;2024-03-23T15:01:08;7.80;1.00
827;DHT22;395;48.132;11.608;2024-03-23T15:03:38;7.90;1.00
827;DHT22;395;48.132;11.608;2024-03-23T15:06:08;7.90;1.00
827;DHT22;395;48.132;11.608;2024-03-23T15:08:37;7.90;1.00
827;DHT22;395;48.132;11.608;2024-03-23T15:11:04;7.60;1.00
827;DHT22;395;48.132;11.608;2024-03-23T15:13:33;7.80;1.00
827;DHT22;395;48.132;11.608;2024-03-23T15:15:59;7.60;1.00
827;DHT22;395;48.132;11.608;2024-03-23T15:18:25;7.40;1.00
827;DHT22;395;48.132;11.608;2024-03-23T15:21:01;7.40;1.00
827;DHT22;395;48.132;11.608;2024-03-23T15:23:28;7.40;1.00
827;DHT22;395;48.132;11.608;2024-03-23T15:26:01;7.40;1.00
827;DHT22;395;48.132;11.608;2024-03-23T15:28:28;7.40;1.00
827;DHT22;395;48.132;11.608;2024-03-23T15:31:09;7.40;1.00
827;DHT22;395;48.132;11.608;2024-03-23T15:33:36;7.40;1.00
827;DHT22;395;48.132;11.608;2024-03-23T15:36:02;7.60;1.00
827;DHT22;395;48.132;11.608;2024-03-23T15:38:28;7.90;1.00
827;DHT22;395;48.132;11.608;2024-03-23T15:40:55;8.00;1.00
827;DHT22;395;48.132;11.608;2024-03-23T15:43:22;8.20;1.00
827;DHT22;395;48.132;11.608;2024-03-23T15:45:58;8.30;1.00
827;DHT22;395;48.132;11.608;2024-03-23T15:48:28;8.40;1.00
827;DHT22;395;48.132;11.608;2024-03-23T15:50:58;8.50;1.00
827;DHT22;395;48.132;11.608;2024-03-23T15:53:25;8.60;1.00
827;DHT22;395;48.132;11.608;2024-03-23T15:58:20;8.90;1.00
827;DHT22;395;48.132;11.608;2024-03-23T16:01:01;9.10;1.00
827;DHT22;395;48.132;11.608;2024-03-23T16:03:27;9.40;1.00
827;DHT22;395;48.132;11.608;2024-03-23T16:05:59;9.50;1.00
827;DHT22;395;48.132;11.608;2024-03-23T16:08:25;9.50;1.00
827;DHT22;395;48.132;11.608;2024-03-23T16:10:52;9.40;1.00
827;DHT22;395;48.132;11.608;2024-03-23T16:13:18;9.40;1.00
827;DHT22;395;48.132;11.608;2024-03-23T16:15:44;9.20;1.00
827;DHT22;395;48.132;11.608;2024-03-23T16:18:10;9.20;1.00
827;DHT22;395;48.132;11.608;2024-03-23T16:20:36;9.00;1.00
827;DHT22;395;48.132;11.608;2024-03-23T16:23:05;8.90;1.00
827;DHT22;395;48.132;11.608;2024-03-23T16:25:31;8.90;1.00
827;DHT22;395;48.132;11.608;2024-03-23T16:27:57;8.80;1.00
827;DHT22;395;48.132;11.608;2024-03-23T16:30:23;8.80;1.00
827;DHT22;395;48.132;11.608;2024-03-23T16:32:48;8.70;1.00
827;DHT22;395;48.132;11.608;2024-03-23T16:35:14;8.70;1.00
827;DHT22;395;48.132;11.608;2024-03-23T16:37:41;8.60;1.00
827;DHT22;395;48.132;11.608;2024-03-23T16:40:07;8.50;1.00
827;DHT22;395;48.132;11.608;2024-03-23T16:42:35;8.50;1.00
827;DHT22;395;48.132;11.608;2024-03-23T16:45:01;8.50;1.00
827;DHT22;395;48.132;11.608;2024-03-23T16:47:29;8.50;1.00
827;DHT22;395;48.132;11.608;2024-03-23T16:49:54;8.60;1.00
827;DHT22;395;48.132;11.608;2024-03-23T16:52:20;8.50;1.00
827;DHT22;395;48.132;11.608;2024-03-23T16:54:46;8.40;1.00
827;DHT22;395;48.132;11.608;2024-03-23T16:57:13;8.40;1.00
827;DHT22;395;48.132;11.608;2024-03-23T16:59:39;8.40;1.00
827;DHT22;395;48.132;11.608;2024-03-23T17:02:05;8.30;1.00
827;DHT22;395;48.132;11.608;2024-03-23T17:04:31;8.40;1.00
827;DHT22;395;48.132;11.608;2024-03-23T17:06:56;8.30;1.00
827;DHT22;395;48.132;11.608;2024-03-23T17:09:22;8.40;1.00
827;DHT22;395;48.132;11.608;2024-03-23T17:11:48;8.40;1.00
827;DHT22;395;48.132;11.608;2024-03-23T17:14:14;8.40;1.00
827;DHT22;395;48.132;11.608;2024-03-23T17:16:41;8.40;1.00
827;DHT22;395;48.132;11.608;2024-03-23T17:19:08;8.40;1.00
827;DHT22;395;48.132;11.608;2024-03-23T17:21:34;8.40;1.00
827;DHT22;395;48.132;11.608;2024-03-23T17:24:01;8.30;1.00
827;DHT22;395;48.132;11.608;2024-03-23T17:26:27;8.20;1.00
827;DHT22;395;48.132;11.608;2024-03-23T17:28:53;8.00;1.00
827;DHT22;395;48.132;11.608;2024-03-23T17:31:20;7.90;1.00
827;DHT22;395;48.132;11.608;2024-03-23T17:33:49;7.80;1.00
827;DHT22;395;48.132;11.608;2024-03-23T17:36:19;7.60;1.00
827;DHT22;395;48.132;11.608;2024-03-23T17:38:55;7.40;1.00
827;DHT22;395;48.132;11.608;2024-03-23T17:41:22;7.00;1.00
827;DHT22;395;48.132;11.608;2024-03-23T17:43:50;6.70;1.00
827;DHT22;395;48.132;11.608;2024-03-23T17:46:16;6.60;1.00
827;DHT22;395;48.132;11.608;2024-03-23T17:48:42;6.60;1.00
827;DHT22;395;48.132;11.608;2024-03-23T17:51:08;6.70;1.00
827;DHT22;395;48.132;11.608;2024-03-23T17:53:40;6.70;1.00
827;DHT22;395;48.132;11.608;2024-03-23T17:56:06;6.60;1.00
827;DHT22;395;48.132;11.608;2024-03-23T17:58:33;6.70;1.00
827;DHT22;395;48.132;11.608;2024-03-23T18:01:05;6.60;1.00
827;DHT22;395;48.132;11.608;2024-03-23T18:03:31;6.50;1.00
827;DHT22;395;48.132;11.608;2024-03-23T18:05:59;6.50;1.00
827;DHT22;395;48.132;11.608;2024-03-23T18:08:25;6.50;1.00
827;DHT22;395;48.132;11.608;2024-03-23T18:10:51;6.60;1.00
827;DHT22;395;48.132;11.608;2024-03-23T18:13:17;6.90;1.00
827;DHT22;395;48.132;11.608;2024-03-23T18:15:43;6.70;1.00
827;DHT22;395;48.132;11.608;2024-03-23T18:18:09;6.70;1.00
827;DHT22;395;48.132;11.608;2024-03-23T18:20:35;6.70;1.00
827;DHT22;395;48.132;11.608;2024-03-23T18:23:01;6.60;1.00
827;DHT22;395;48.132;11.608;2024-03-23T18:25:27;6.60;1.00
827;DHT22;395;48.132;11.608;2024-03-23T18:27:53;6.60;1.00
827;DHT22;395;48.132;11.608;2024-03-23T18:30:18;6.60;1.00
827;DHT22;395;48.132;11.608;2024-03-23T18:32:44;6.50;1.00
827;DHT22;395;48.132;11.608;2024-03-23T18:35:10;6.50;1.00
827;DHT22;395;48.132;11.608;2024-03-23T18:37:36;6.40;1.00
827;DHT22;395;48.132;11.608;2024-03-23T18:40:02;6.30;1.00
827;DHT22;395;48.132;11.608;2024-03-23T18:42:28;6.40;1.00
827;DHT22;395;48.132;11.608;2024-03-23T18:44:53;6.30;1.00
827;DHT22;395;48.132;11.608;2024-03-23T18:47:19;6.30;1.00
827;DHT22;395;48.132;11.608;2024-03-23T18:49:45;6.30;1.00
827;DHT22;395;48.132;11.608;2024-03-23T18:52:11;6.30;1.00
827;DHT22;395;48.132;11.608;2024-03-23T18:54:36;6.10;1.00
827;DHT22;395;48.132;11.608;2024-03-23T18:57:02;6.10;1.00
827;DHT22;395;48.132;11.608;2024-03-23T18:59:28;5.90;1.00
827;DHT22;395;48.132;11.608;2024-03-23T19:01:54;5.80;1.00
827;DHT22;395;48.132;11.608;2024-03-23T19:04:20;5.80;1.00
827;DHT22;395;48.132;11.608;2024-03-23T19:06:45;5.80;1.00
827;DHT22;395;48.132;11.608;2024-03-23T19:09:11;5.90;1.00
827;DHT22;395;48.132;11.608;2024-03-23T19:11:37;5.90;1.00
827;DHT22;395;48.132;11.608;2024-03-23T19:14:03;5.90;1.00
827;DHT22;395;48.132;11.608;2024-03-23T19:16:29;5.90;1.00
827;DHT22;395;48.132;11.608;2024-03-23T19:18:56;6.00;1.00
827;DHT22;395;48.132;11.608;2024-03-23T19:21:21;6.00;1.00
827;DHT22;395;48.132;11.608;2024-03-23T19:23:47;6.00;1.00
827;DHT22;395;48.132;11.608;2024-03-23T19:26:13;6.10;1.00
827;DHT22;395;48.132;11.608;2024-03-23T19:28:39;6.10;1.00
827;DHT22;395;48.132;11.608;2024-03-23T19:31:04;6.10;1.00
827;DHT22;395;48.132;11.608;2024-03-23T19:33:32;6.20;1.00
827;DHT22;395;48.132;11.608;2024-03-23T19:35:59;6.20;1.00
827;DHT22;395;48.132;11.608;2024-03-23T19:38:25;6.30;1.00
827;DHT22;395;48.132;11.608;2024-03-23T19:40:55;6.30;1.00
827;DHT22;395;48.132;11.608;2024-03-23T19:43:21;6.30;1.00
827;DHT22;395;48.132;11.608;2024-03-23T19:45:47;6.40;1.00
827;DHT22;395;48.132;11.608;2024-03-23T19:48:13;6.40;1.00
827;DHT22;395;48.132;11.608;2024-03-23T19:50:39;6.40;1.00
827;DHT22;395;48.132;11.608;2024-03-23T19:53:04;6.40;1.00
827;DHT22;395;48.132;11.608;2024-03-23T19:55:31;6.40;1.00
827;DHT22;395;48.132;11.608;2024-03-23T19:57:58;6.40;1.00
827;DHT22;395;48.132;11.608;2024-03-23T20:00:26;6.40;1.00
827;DHT22;395;48.132;11.608;2024-03-23T20:02:52;6.40;1.00
827;DHT22;395;48.132;11.608;2024-03-23T20:05:18;6.40;1.00
827;DHT22;395;48.132;11.608;2024-03-23T20:07:44;6.40;1.00
827;DHT22;395;48.132;11.608;2024-03-23T20:10:10;6.40;1.00
827;DHT22;395;48.132;11.608;2024-03-23T20:12:36;6.50;1.00
827;DHT22;395;48.132;11.608;2024-03-23T20:15:02;6.60;1.00
827;DHT22;395;48.132;11.608;2024-03-23T20:17:28;6.60;1.00
827;DHT22;395;48.132;11.608;2024-03-23T20:19:54;6.50;1.00
827;DHT22;395;48.132;11.608;2024-03-23T20:22:20;6.60;1.00
827;DHT22;395;48.132;11.608;2024-03-23T20:24:45;6.60;1.00
827;DHT22;395;48.132;11.608;2024-03-23T20:27:11;6.50;1.00
827;DHT22;395;48.132;11.608;2024-03-23T20:29:38;6.50;1.00
827;DHT22;395;48.132;11.608;2024-03-23T20:32:04;6.50;1.00
827;DHT22;395;48.132;11.608;2024-03-23T20:34:30;6.40;1.00
827;DHT22;395;48.132;11.608;2024-03-23T20:36:56;6.20;1.00
827;DHT22;395;48.132;11.608;2024-03-23T20:39:24;6.40;1.00
827;DHT22;395;48.132;11.608;2024-03-23T20:41:50;6.40;1.00
827;DHT22;395;48.132;11.608;2024-03-23T20:44:16;6.40;1.00
827;DHT22;395;48.132;11.608;2024-03-23T20:46:42;6.50;1.00
827;DHT22;395;48.132;11.608;2024-03-23T20:49:08;6.50;1.00
827;DHT22;395;48.132;11.608;2024-03-23T20:51:34;6.60;1.00
827;DHT22;395;48.132;11.608;2024-03-23T20:54:00;6.60;1.00
827;DHT22;395;48.132;11.608;2024-03-23T20:56:25;6.60;1.00
827;DHT22;395;48.132;11.608;2024-03-23T20:58:51;6.70;1.00
827;DHT22;395;48.132;11.608;2024-03-23T21:01:17;6.50;1.00
827;DHT22;395;48.132;11.608;2024-03-23T21:03:43;6.50;1.00
827;DHT22;395;48.132;11.608;2024-03-23T21:06:09;6.50;1.00
827;DHT22;395;48.132;11.608;2024-03-23T21:08:35;6.50;1.00
827;DHT22;395;48.132;11.608;2024-03-23T21:11:01;6.50;1.00
827;DHT22;395;48.132;11.608;2024-03-23T21:13:29;6.50;1.00
827;DHT22;395;48.132;11.608;2024-03-23T21:15:55;6.50;1.00
827;DHT22;395;48.132;11.608;2024-03-23T21:18:26;6.50;1.00
827;DHT22;395;48.132;11.608;2024-03-23T21:20:56;6.50;1.00
827;DHT22;395;48.132;11.608;2024-03-23T21:23:26;6.50;1.00
827;DHT22;395;48.132;11.608;2024-03-23T21:26:00;6.50;1.00
827;DHT22;395;48.132;11.608;2024-03-23T21:28:26;6.50;1.00
827;DHT22;395;48.132;11.608;2024-03-23T21:30:53;6.40;1.00
827;DHT22;395;48.132;11.608;2024-03-23T21:33:19;6.40;1.00
827;DHT22;395;48.132;11.608;2024-03-23T21:35:45;6.30;1.00
827;DHT22;395;48.132;11.608;2024-03-23T21:38:18;6.20;1.00
827;DHT22;395;48.132;11.608;2024-03-23T21:40:59;6.20;1.00
827;DHT22;395;48.132;11.608;2024-03-23T21:43:26;6.10;1.00
827;DHT22;395;48.132;11.608;2024-03-23T21:45:57;6.10;1.00
827;DHT22;395;48.132;11.608;2024-03-23T21:48:25;6.10;1.00
827;DHT22;395;48.132;11.608;2024-03-23T21:50:52;6.10;1.00
827;DHT22;395;48.132;11.608;2024-03-23T21:53:18;6.30;1.00
827;DHT22;395;48.132;11.608;2024-03-23T21:55:51;6.00;1.00
827;DHT22;395;48.132;11.608;2024-03-23T21:58:17;6.00;1.00
827;DHT22;395;48.132;11.608;2024-03-23T22:00:43;6.00;1.00
827;DHT22;395;48.132;11.608;2024-03-23T22:03:11;6.10;1.00
827;DHT22;395;48.132;11.608;2024-03-23T22:05:37;6.00;1.00
827;DHT22;395;48.132;11.608;2024-03-23T22:08:04;6.00;1.00
827;DHT22;395;48.132;11.608;2024-03-23T22:10:31;5.90;1.00
827;DHT22;395;48.132;11.608;2024-03-23T22:12:57;5.90;1.00
827;DHT22;395;48.132;11.608;2024-03-23T22:15:24;5.80;1.00
827;DHT22;395;48.132;11.608;2024-03-23T22:17:50;5.80;1.00
827;DHT22;395;48.132;11.608;2024-03-23T22:20:16;5.70;1.00
827;DHT22;395;48.132;11.608;2024-03-23T22:22:42;5.70;1.00
827;DHT22;395;48.132;11.608;2024-03-23T22:25:08;5.60;1.00
827;DHT22;395;48.132;11.608;2024-03-23T22:27:34;5.70;1.00
827;DHT22;395;48.132;11.608;2024-03-23T22:29:59;5.70;1.00
827;DHT22;395;48.132;11.608;2024-03-23T22:32:25;5.80;1.00
827;DHT22;395;48.132;11.608;2024-03-23T22:34:51;5.70;1.00
827;DHT22;395;48.132;11.608;2024-03-23T22:37:17;5.70;1.00
827;DHT22;395;48.132;11.608;2024-03-23T22:39:43;5.80;1.00
827;DHT22;395;48.132;11.608;2024-03-23T22:42:09;5.70;1.00
827;DHT22;395;48.132;11.608;2024-03-23T22:44:34;5.80;1.00
827;DHT22;395;48.132;11.608;2024-03-23T22:47:00;5.80;1.00
827;DHT22;395;48.132;11.608;2024-03-23T22:49:26;5.70;1.00
827;DHT22;395;48.132;11.608;2024-03-23T22:51:52;5.70;1.00
827;DHT22;395;48.132;11.608;2024-03-23T22:54:18;5.70;1.00
827;DHT22;395;48.132;11.608;2024-03-23T22:56:44;5.70;1.00
827;DHT22;395;48.132;11.608;2024-03-23T22:59:10;5.70;1.00
827;DHT22;395;48.132;11.608;2024-03-23T23:01:35;5.70;1.00
827;DHT22;395;48.132;11.608;2024-03-23T23:04:02;5.70;1.00
827;DHT22;395;48.132;11.608;2024-03-23T23:06:27;5.70;1.00
827;DHT22;395;48.132;11.608;2024-03-23T23:08:53;5.70;1.00
827;DHT22;395;48.132;11.608;2024-03-23T23:11:19;5.70;1.00
827;DHT22;395;48.132;11.608;2024-03-23T23:13:48;5.70;1.00
827;DHT22;395;48.132;11.608;2024-03-23T23:16:14;5.80;1.00
827;DHT22;395;48.132;11.608;2024-03-23T23:18:40;5.70;1.00
827;DHT22;395;48.132;11.608;2024-03-23T23:21:05;5.70;1.00
827;DHT22;395;48.132;11.608;2024-03-23T23:23:31;5.70;1.00
827;DHT22;395;48.132;11.608;2024-03-23T23:25:58;5.60;1.00
827;DHT22;395;48.132;11.608;2024-03-23T23:28:24;5.60;1.00
827;DHT22;395;48.132;11.608;2024-03-23T23:31:00;5.60;1.00
827;DHT22;395;48.132;11.608;2024-03-23T23:33:27;5.60;1.00
827;DHT22;395;48.132;11.608;2024-03-23T23:35:53;5.70;1.00
827;DHT22;395;48.132;11.608;2024-03-23T23:38:19;5.70;1.00
827;DHT22;395;48.132;11.608;2024-03-23T23:40:44;5.70;1.00
827;DHT22;395;48.132;11.608;2024-03-23T23:43:10;5.70;1.00
827;DHT22;395;48.132;11.608;2024-03-23T23:45:37;5.70;1.00
827;DHT22;395;48.132;11.608;2024-03-23T23:48:03;5.60;1.00
827;DHT22;395;48.132;11.608;2024-03-23T23:50:29;5.60;1.00
827;DHT22;395;48.132;11.608;2024-03-23T23:52:54;5.60;1.00
827;DHT22;395;48.132;11.608;2024-03-23T23:55:21;5.60;1.00
827;DHT22;395;48.132;11.608;2024-03-23T23:57:46;5.50;1.00
